sensor_id;sensor_type;location;lat;lon;timestamp;P1;durP1;ratioP1;P2;durP2;ratioP2
84687;SDS011;74908;42.040;21.322;2024-01-16T15:06:44;3.70;;;1.80;;
84687;SDS011;74908;42.040;21.322;2024-01-16T15:09:12;2.28;;;1.10;;
84687;SDS011;74908;42.040;21.322;2024-01-16T15:11:38;2.00;;;1.05;;
84687;SDS011;74908;42.040;21.322;2024-01-16T15:14:04;3.25;;;1.30;;
84687;SDS011;74908;42.040;21.322;2024-01-16T15:16:30;3.90;;;1.42;;
84687;SDS011;74908;42.040;21.322;2024-01-16T15:18:56;1.85;;;0.82;;
84687;SDS011;74908;42.040;21.322;2024-01-16T15:21:22;1.60;;;0.93;;
84687;SDS011;74908;42.040;21.322;2024-01-16T15:23:48;2.42;;;1.25;;
84687;SDS011;74908;42.040;21.322;2024-01-16T15:26:15;2.15;;;1.30;;
84687;SDS011;74908;42.040;21.322;2024-01-16T15:28:45;4.93;;;1.20;;
84687;SDS011;74908;42.040;21.322;2024-01-16T15:31:11;2.67;;;1.00;;
84687;SDS011;74908;42.040;21.322;2024-01-16T15:33:38;2.33;;;1.17;;
84687;SDS011;74908;42.040;21.322;2024-01-16T15:36:04;2.75;;;1.25;;
84687;SDS011;74908;42.040;21.322;2024-01-16T15:38:31;1.98;;;1.05;;
84687;SDS011;74908;42.040;21.322;2024-01-16T15:40:57;2.80;;;1.20;;
84687;SDS011;74908;42.040;21.322;2024-01-16T15:43:23;3.63;;;1.23;;
84687;SDS011;74908;42.040;21.322;2024-01-16T15:45:50;1.65;;;0.88;;
84687;SDS011;74908;42.040;21.322;2024-01-16T15:48:16;1.67;;;0.90;;
84687;SDS011;74908;42.040;21.322;2024-01-16T15:50:42;1.83;;;0.85;;
84687;SDS011;74908;42.040;21.322;2024-01-16T15:53:08;3.22;;;1.27;;
84687;SDS011;74908;42.040;21.322;2024-01-16T15:55:37;1.90;;;1.30;;
84687;SDS011;74908;42.040;21.322;2024-01-16T15:58:03;2.25;;;1.40;;
84687;SDS011;74908;42.040;21.322;2024-01-16T16:00:29;2.50;;;1.20;;
84687;SDS011;74908;42.040;21.322;2024-01-16T16:02:56;1.80;;;1.23;;
84687;SDS011;74908;42.040;21.322;2024-01-16T16:05:24;2.42;;;0.98;;
84687;SDS011;74908;42.040;21.322;2024-01-16T16:07:50;1.77;;;0.80;;
84687;SDS011;74908;42.040;21.322;2024-01-16T16:10:16;1.58;;;1.00;;
84687;SDS011;74908;42.040;21.322;2024-01-16T16:12:43;2.95;;;1.08;;
84687;SDS011;74908;42.040;21.322;2024-01-16T16:15:09;2.65;;;1.23;;
84687;SDS011;74908;42.040;21.322;2024-01-16T16:17:35;1.42;;;1.05;;
84687;SDS011;74908;42.040;21.322;2024-01-16T16:20:02;1.85;;;0.80;;
84687;SDS011;74908;42.040;21.322;2024-01-16T16:22:28;2.28;;;0.90;;
84687;SDS011;74908;42.040;21.322;2024-01-16T16:24:54;1.80;;;0.85;;
84687;SDS011;74908;42.040;21.322;2024-01-16T16:27:25;1.17;;;0.90;;
84687;SDS011;74908;42.040;21.322;2024-01-16T16:29:54;5.45;;;0.93;;
84687;SDS011;74908;42.040;21.322;2024-01-16T16:32:20;1.08;;;0.80;;
84687;SDS011;74908;42.040;21.322;2024-01-16T16:34:47;0.80;;;0.57;;
84687;SDS011;74908;42.040;21.322;2024-01-16T16:37:14;1.42;;;0.80;;
84687;SDS011;74908;42.040;21.322;2024-01-16T16:39:40;1.63;;;1.02;;
84687;SDS011;74908;42.040;21.322;2024-01-16T16:42:07;1.63;;;0.75;;
84687;SDS011;74908;42.040;21.322;2024-01-16T16:44:34;2.67;;;0.98;;
84687;SDS011;74908;42.040;21.322;2024-01-16T16:47:00;2.67;;;1.20;;
84687;SDS011;74908;42.040;21.322;2024-01-16T16:49:26;2.47;;;1.33;;
84687;SDS011;74908;42.040;21.322;2024-01-16T16:51:52;3.58;;;2.22;;
84687;SDS011;74908;42.040;21.322;2024-01-16T16:54:18;4.82;;;3.17;;
84687;SDS011;74908;42.040;21.322;2024-01-16T16:56:44;5.97;;;2.97;;
84687;SDS011;74908;42.040;21.322;2024-01-16T16:59:11;4.82;;;2.50;;
84687;SDS011;74908;42.040;21.322;2024-01-16T17:01:37;8.23;;;3.45;;
84687;SDS011;74908;42.040;21.322;2024-01-16T17:04:04;5.35;;;2.63;;
84687;SDS011;74908;42.040;21.322;2024-01-16T17:06:31;4.28;;;2.72;;
84687;SDS011;74908;42.040;21.322;2024-01-16T17:08:57;4.25;;;1.80;;
84687;SDS011;74908;42.040;21.322;2024-01-16T17:11:23;5.63;;;2.08;;
84687;SDS011;74908;42.040;21.322;2024-01-16T17:13:52;4.00;;;1.70;;
84687;SDS011;74908;42.040;21.322;2024-01-16T17:16:19;2.88;;;1.60;;
84687;SDS011;74908;42.040;21.322;2024-01-16T17:18:48;3.53;;;1.67;;
84687;SDS011;74908;42.040;21.322;2024-01-16T17:21:14;2.90;;;1.20;;
84687;SDS011;74908;42.040;21.322;2024-01-16T17:23:41;5.15;;;1.13;;
84687;SDS011;74908;42.040;21.322;2024-01-16T17:26:09;1.48;;;1.13;;
84687;SDS011;74908;42.040;21.322;2024-01-16T17:28:36;2.38;;;1.40;;
84687;SDS011;74908;42.040;21.322;2024-01-16T17:31:02;2.13;;;0.80;;
84687;SDS011;74908;42.040;21.322;2024-01-16T17:33:28;2.45;;;1.13;;
84687;SDS011;74908;42.040;21.322;2024-01-16T17:35:55;2.10;;;1.23;;
84687;SDS011;74908;42.040;21.322;2024-01-16T17:38:33;2.60;;;1.42;;
84687;SDS011;74908;42.040;21.322;2024-01-16T17:40:59;2.67;;;1.10;;
84687;SDS011;74908;42.040;21.322;2024-01-16T17:43:26;5.22;;;1.27;;
84687;SDS011;74908;42.040;21.322;2024-01-16T17:45:53;3.05;;;1.00;;
84687;SDS011;74908;42.040;21.322;2024-01-16T17:48:19;2.55;;;1.00;;
84687;SDS011;74908;42.040;21.322;2024-01-16T17:50:45;1.88;;;0.98;;
84687;SDS011;74908;42.040;21.322;2024-01-16T17:53:11;2.28;;;0.95;;
84687;SDS011;74908;42.040;21.322;2024-01-16T17:55:38;2.70;;;0.98;;
84687;SDS011;74908;42.040;21.322;2024-01-16T17:58:04;5.60;;;1.20;;
84687;SDS011;74908;42.040;21.322;2024-01-16T18:00:30;2.75;;;1.10;;
84687;SDS011;74908;42.040;21.322;2024-01-16T18:02:57;2.05;;;1.20;;
84687;SDS011;74908;42.040;21.322;2024-01-16T18:05:23;1.35;;;0.60;;
84687;SDS011;74908;42.040;21.322;2024-01-16T18:07:53;3.10;;;0.98;;
84687;SDS011;74908;42.040;21.322;2024-01-16T18:10:20;1.50;;;0.73;;
84687;SDS011;74908;42.040;21.322;2024-01-16T18:12:46;1.63;;;0.90;;
84687;SDS011;74908;42.040;21.322;2024-01-16T18:15:12;1.38;;;0.80;;
84687;SDS011;74908;42.040;21.322;2024-01-16T18:17:42;1.95;;;1.10;;
84687;SDS011;74908;42.040;21.322;2024-01-16T18:20:12;2.53;;;1.20;;
84687;SDS011;74908;42.040;21.322;2024-01-16T18:22:42;2.47;;;1.17;;
84687;SDS011;74908;42.040;21.322;2024-01-16T18:25:08;2.10;;;1.35;;
84687;SDS011;74908;42.040;21.322;2024-01-16T18:27:37;8.25;;;2.92;;
84687;SDS011;74908;42.040;21.322;2024-01-16T18:30:03;9.25;;;4.20;;
84687;SDS011;74908;42.040;21.322;2024-01-16T18:32:30;3.92;;;2.50;;
84687;SDS011;74908;42.040;21.322;2024-01-16T18:34:58;6.28;;;2.38;;
84687;SDS011;74908;42.040;21.322;2024-01-16T18:37:24;9.13;;;4.70;;
84687;SDS011;74908;42.040;21.322;2024-01-16T18:39:51;12.85;;;6.15;;
84687;SDS011;74908;42.040;21.322;2024-01-16T18:42:17;18.33;;;8.65;;
84687;SDS011;74908;42.040;21.322;2024-01-16T18:44:47;21.30;;;9.75;;
84687;SDS011;74908;42.040;21.322;2024-01-16T18:47:14;13.68;;;7.22;;
84687;SDS011;74908;42.040;21.322;2024-01-16T18:49:45;15.55;;;7.45;;
84687;SDS011;74908;42.040;21.322;2024-01-16T18:52:12;12.40;;;6.30;;
84687;SDS011;74908;42.040;21.322;2024-01-16T18:54:39;8.40;;;4.40;;
84687;SDS011;74908;42.040;21.322;2024-01-16T18:57:05;9.98;;;5.13;;
84687;SDS011;74908;42.040;21.322;2024-01-16T18:59:32;13.82;;;5.95;;
84687;SDS011;74908;42.040;21.322;2024-01-16T19:01:58;10.30;;;5.85;;
84687;SDS011;74908;42.040;21.322;2024-01-16T19:04:24;14.18;;;6.20;;
84687;SDS011;74908;42.040;21.322;2024-01-16T19:06:50;9.73;;;4.47;;
84687;SDS011;74908;42.040;21.322;2024-01-16T19:09:17;7.60;;;3.70;;
84687;SDS011;74908;42.040;21.322;2024-01-16T19:11:50;5.75;;;2.53;;
84687;SDS011;74908;42.040;21.322;2024-01-16T19:14:20;5.85;;;2.85;;
84687;SDS011;74908;42.040;21.322;2024-01-16T19:16:46;4.13;;;2.45;;
84687;SDS011;74908;42.040;21.322;2024-01-16T19:19:15;7.90;;;3.53;;
84687;SDS011;74908;42.040;21.322;2024-01-16T19:21:42;8.40;;;3.10;;
84687;SDS011;74908;42.040;21.322;2024-01-16T19:24:08;6.85;;;3.33;;
84687;SDS011;74908;42.040;21.322;2024-01-16T19:26:36;8.00;;;4.15;;
84687;SDS011;74908;42.040;21.322;2024-01-16T19:29:02;10.27;;;4.25;;
84687;SDS011;74908;42.040;21.322;2024-01-16T19:31:28;7.65;;;4.78;;
84687;SDS011;74908;42.040;21.322;2024-01-16T19:33:57;10.93;;;6.32;;
84687;SDS011;74908;42.040;21.322;2024-01-16T19:36:23;13.93;;;5.85;;
84687;SDS011;74908;42.040;21.322;2024-01-16T19:38:50;8.77;;;5.10;;
84687;SDS011;74908;42.040;21.322;2024-01-16T19:41:16;13.55;;;8.02;;
84687;SDS011;74908;42.040;21.322;2024-01-16T19:43:42;16.95;;;8.60;;
84687;SDS011;74908;42.040;21.322;2024-01-16T19:46:09;16.50;;;8.98;;
84687;SDS011;74908;42.040;21.322;2024-01-16T19:48:35;14.95;;;7.82;;
84687;SDS011;74908;42.040;21.322;2024-01-16T19:51:04;18.08;;;8.48;;
84687;SDS011;74908;42.040;21.322;2024-01-16T19:53:31;14.23;;;6.32;;
84687;SDS011;74908;42.040;21.322;2024-01-16T19:55:57;19.80;;;8.27;;
84687;SDS011;74908;42.040;21.322;2024-01-16T19:58:25;14.23;;;7.78;;
84687;SDS011;74908;42.040;21.322;2024-01-16T20:00:51;16.63;;;8.48;;
84687;SDS011;74908;42.040;21.322;2024-01-16T20:03:17;13.98;;;7.28;;
84687;SDS011;74908;42.040;21.322;2024-01-16T20:05:43;15.65;;;6.88;;
84687;SDS011;74908;42.040;21.322;2024-01-16T20:08:10;12.90;;;6.90;;
84687;SDS011;74908;42.040;21.322;2024-01-16T20:10:37;15.02;;;6.90;;
84687;SDS011;74908;42.040;21.322;2024-01-16T20:13:04;13.85;;;7.03;;
84687;SDS011;74908;42.040;21.322;2024-01-16T20:15:32;14.57;;;6.07;;
84687;SDS011;74908;42.040;21.322;2024-01-16T20:17:59;16.10;;;7.75;;
84687;SDS011;74908;42.040;21.322;2024-01-16T20:20:28;17.70;;;10.00;;
84687;SDS011;74908;42.040;21.322;2024-01-16T20:22:55;20.13;;;8.30;;
84687;SDS011;74908;42.040;21.322;2024-01-16T20:25:21;16.90;;;7.80;;
84687;SDS011;74908;42.040;21.322;2024-01-16T20:27:49;15.25;;;7.13;;
84687;SDS011;74908;42.040;21.322;2024-01-16T20:30:15;15.52;;;8.13;;
84687;SDS011;74908;42.040;21.322;2024-01-16T20:32:42;14.57;;;6.75;;
84687;SDS011;74908;42.040;21.322;2024-01-16T20:35:09;11.82;;;7.03;;
84687;SDS011;74908;42.040;21.322;2024-01-16T20:37:36;22.85;;;10.10;;
84687;SDS011;74908;42.040;21.322;2024-01-16T20:40:02;14.68;;;8.63;;
84687;SDS011;74908;42.040;21.322;2024-01-16T20:42:29;15.27;;;9.07;;
84687;SDS011;74908;42.040;21.322;2024-01-16T20:44:56;15.60;;;8.45;;
84687;SDS011;74908;42.040;21.322;2024-01-16T20:47:22;11.95;;;7.00;;
84687;SDS011;74908;42.040;21.322;2024-01-16T20:49:48;14.50;;;7.57;;
84687;SDS011;74908;42.040;21.322;2024-01-16T20:52:17;12.98;;;6.30;;
84687;SDS011;74908;42.040;21.322;2024-01-16T20:54:43;17.98;;;7.88;;
84687;SDS011;74908;42.040;21.322;2024-01-16T20:57:09;17.77;;;6.18;;
84687;SDS011;74908;42.040;21.322;2024-01-16T20:59:35;13.55;;;7.05;;
84687;SDS011;74908;42.040;21.322;2024-01-16T21:02:02;12.43;;;7.65;;
84687;SDS011;74908;42.040;21.322;2024-01-16T21:04:28;18.48;;;7.32;;
84687;SDS011;74908;42.040;21.322;2024-01-16T21:06:54;12.98;;;6.78;;
84687;SDS011;74908;42.040;21.322;2024-01-16T21:09:25;14.80;;;7.18;;
84687;SDS011;74908;42.040;21.322;2024-01-16T21:11:52;17.38;;;7.22;;
84687;SDS011;74908;42.040;21.322;2024-01-16T21:14:18;22.02;;;8.55;;
84687;SDS011;74908;42.040;21.322;2024-01-16T21:16:45;17.42;;;8.73;;
84687;SDS011;74908;42.040;21.322;2024-01-16T21:19:14;17.02;;;7.97;;
84687;SDS011;74908;42.040;21.322;2024-01-16T21:21:43;20.95;;;11.77;;
84687;SDS011;74908;42.040;21.322;2024-01-16T21:24:11;26.38;;;13.55;;
84687;SDS011;74908;42.040;21.322;2024-01-16T21:26:42;25.38;;;13.07;;
84687;SDS011;74908;42.040;21.322;2024-01-16T21:29:09;31.95;;;14.93;;
84687;SDS011;74908;42.040;21.322;2024-01-16T21:31:45;30.58;;;15.52;;
84687;SDS011;74908;42.040;21.322;2024-01-16T21:34:12;23.48;;;12.65;;
84687;SDS011;74908;42.040;21.322;2024-01-16T21:36:40;22.27;;;12.98;;
84687;SDS011;74908;42.040;21.322;2024-01-16T21:39:06;22.83;;;12.77;;
84687;SDS011;74908;42.040;21.322;2024-01-16T21:41:34;34.10;;;11.88;;
84687;SDS011;74908;42.040;21.322;2024-01-16T21:44:01;22.35;;;12.32;;
84687;SDS011;74908;42.040;21.322;2024-01-16T21:46:27;28.45;;;13.05;;
84687;SDS011;74908;42.040;21.322;2024-01-16T21:48:53;24.27;;;12.88;;
84687;SDS011;74908;42.040;21.322;2024-01-16T21:51:19;23.13;;;10.68;;
84687;SDS011;74908;42.040;21.322;2024-01-16T21:53:45;21.25;;;11.77;;
84687;SDS011;74908;42.040;21.322;2024-01-16T21:56:12;19.58;;;11.65;;
84687;SDS011;74908;42.040;21.322;2024-01-16T21:58:38;30.65;;;14.07;;
84687;SDS011;74908;42.040;21.322;2024-01-16T22:01:04;24.45;;;13.15;;
84687;SDS011;74908;42.040;21.322;2024-01-16T22:03:30;27.10;;;15.77;;
84687;SDS011;74908;42.040;21.322;2024-01-16T22:05:57;31.25;;;15.20;;
84687;SDS011;74908;42.040;21.322;2024-01-16T22:08:23;25.75;;;11.73;;
84687;SDS011;74908;42.040;21.322;2024-01-16T22:10:49;31.17;;;12.85;;
84687;SDS011;74908;42.040;21.322;2024-01-16T22:13:15;23.73;;;12.63;;
84687;SDS011;74908;42.040;21.322;2024-01-16T22:15:43;25.33;;;11.40;;
84687;SDS011;74908;42.040;21.322;2024-01-16T22:18:09;21.00;;;11.77;;
84687;SDS011;74908;42.040;21.322;2024-01-16T22:20:35;28.38;;;12.57;;
84687;SDS011;74908;42.040;21.322;2024-01-16T22:23:01;20.48;;;11.63;;
84687;SDS011;74908;42.040;21.322;2024-01-16T22:25:28;21.83;;;11.48;;
84687;SDS011;74908;42.040;21.322;2024-01-16T22:27:54;14.35;;;8.38;;
84687;SDS011;74908;42.040;21.322;2024-01-16T22:30:20;16.25;;;8.63;;
84687;SDS011;74908;42.040;21.322;2024-01-16T22:32:46;19.25;;;8.95;;
84687;SDS011;74908;42.040;21.322;2024-01-16T22:35:13;16.52;;;8.90;;
84687;SDS011;74908;42.040;21.322;2024-01-16T22:37:39;17.92;;;9.57;;
84687;SDS011;74908;42.040;21.322;2024-01-16T22:40:09;19.52;;;10.35;;
84687;SDS011;74908;42.040;21.322;2024-01-16T22:42:36;21.58;;;10.05;;
84687;SDS011;74908;42.040;21.322;2024-01-16T22:45:03;15.35;;;8.52;;
84687;SDS011;74908;42.040;21.322;2024-01-16T22:47:29;17.55;;;8.82;;
84687;SDS011;74908;42.040;21.322;2024-01-16T22:49:56;18.42;;;8.75;;
84687;SDS011;74908;42.040;21.322;2024-01-16T22:52:22;33.90;;;15.50;;
84687;SDS011;74908;42.040;21.322;2024-01-16T22:54:48;32.08;;;15.88;;
84687;SDS011;74908;42.040;21.322;2024-01-16T22:57:14;17.33;;;8.90;;
84687;SDS011;74908;42.040;21.322;2024-01-16T22:59:41;17.15;;;9.23;;
84687;SDS011;74908;42.040;21.322;2024-01-16T23:02:08;20.60;;;9.23;;
84687;SDS011;74908;42.040;21.322;2024-01-16T23:04:36;21.67;;;9.75;;
84687;SDS011;74908;42.040;21.322;2024-01-16T23:07:02;20.90;;;10.57;;
84687;SDS011;74908;42.040;21.322;2024-01-16T23:09:28;17.92;;;9.40;;
84687;SDS011;74908;42.040;21.322;2024-01-16T23:11:54;18.02;;;9.23;;
84687;SDS011;74908;42.040;21.322;2024-01-16T23:14:21;14.45;;;7.55;;
84687;SDS011;74908;42.040;21.322;2024-01-16T23:16:47;16.85;;;8.93;;
84687;SDS011;74908;42.040;21.322;2024-01-16T23:19:13;26.38;;;13.52;;
84687;SDS011;74908;42.040;21.322;2024-01-16T23:21:40;16.45;;;8.80;;
84687;SDS011;74908;42.040;21.322;2024-01-16T23:24:06;20.13;;;10.52;;
84687;SDS011;74908;42.040;21.322;2024-01-16T23:26:33;17.90;;;10.35;;
84687;SDS011;74908;42.040;21.322;2024-01-16T23:29:00;25.13;;;12.52;;
84687;SDS011;74908;42.040;21.322;2024-01-16T23:31:27;21.80;;;11.75;;
84687;SDS011;74908;42.040;21.322;2024-01-16T23:33:53;17.98;;;9.18;;
84687;SDS011;74908;42.040;21.322;2024-01-16T23:36:19;20.30;;;11.05;;
84687;SDS011;74908;42.040;21.322;2024-01-16T23:38:45;21.02;;;11.07;;
84687;SDS011;74908;42.040;21.322;2024-01-16T23:41:12;21.17;;;11.25;;
84687;SDS011;74908;42.040;21.322;2024-01-16T23:43:38;25.10;;;11.30;;
84687;SDS011;74908;42.040;21.322;2024-01-16T23:46:04;22.65;;;11.50;;
84687;SDS011;74908;42.040;21.322;2024-01-16T23:51:01;18.02;;;9.93;;
84687;SDS011;74908;42.040;21.322;2024-01-16T23:53:28;22.17;;;12.57;;
84687;SDS011;74908;42.040;21.322;2024-01-16T23:55:54;26.55;;;13.40;;
84687;SDS011;74908;42.040;21.322;2024-01-16T23:58:21;21.08;;;11.18;;
